Time;durP1;ratioP1;P1;durP2;ratioP2;P2;SDS_P1;SDS_P2;PMS_P1;PMS_P2;Temp;Humidity;BMP_temperature;BMP_pressure;BME280_temperature;BME280_humidity;BME280_pressure;Samples;Min_cycle;Max_cycle;Signal;HPM_P1;HPM_P2
2022/08/02 00:00:51;;;;;;;1.98;1.10;;;21.90;54.70;;;;;;4932863;28;20222;-80
2022/08/02 00:03:16;;;;;;;3.20;1.20;;;21.90;54.90;;;;;;4956025;28;20031;-81
2022/08/02 00:05:42;;;;;;;2.05;1.30;;;21.90;55.10;;;;;;4955718;28;20110;-81
2022/08/02 00:08:08;;;;;;;2.65;1.23;;;21.80;55.10;;;;;;4939473;28;20331;-81
2022/08/02 00:10:34;;;;;;;2.33;1.30;;;21.80;55.20;;;;;;4939390;28;20032;-80
2022/08/02 00:12:59;;;;;;;2.65;1.35;;;21.70;55.30;;;;;;4959114;28;20031;-80
2022/08/02 00:15:26;;;;;;;2.77;1.20;;;21.70;55.40;;;;;;4935106;28;20034;-80
2022/08/02 00:17:51;;;;;;;2.20;1.20;;;21.60;55.50;;;;;;4952559;28;20213;-81
2022/08/02 00:20:17;;;;;;;2.60;1.20;;;21.60;55.60;;;;;;4951927;28;20401;-80
2022/08/02 00:22:43;;;;;;;2.00;1.05;;;21.60;55.70;;;;;;4946117;28;20056;-81
2022/08/02 00:25:09;;;;;;;1.88;1.30;;;21.60;56.00;;;;;;4961471;28;20078;-80
2022/08/02 00:27:35;;;;;;;1.77;1.20;;;21.50;56.10;;;;;;4944401;28;20224;-80
2022/08/02 00:30:01;;;;;;;2.55;1.33;;;21.50;56.10;;;;;;4947773;28;20058;-81
2022/08/02 00:32:27;;;;;;;1.40;1.10;;;21.40;56.20;;;;;;4912158;28;20039;-80
2022/08/02 00:34:53;;;;;;;2.20;1.30;;;21.40;56.90;;;;;;4950195;28;20027;-81
2022/08/02 00:37:18;;;;;;;3.03;1.20;;;21.40;57.10;;;;;;4952004;28;20390;-80
2022/08/02 00:39:44;;;;;;;1.50;1.17;;;21.40;56.50;;;;;;4949899;28;20417;-80
2022/08/02 00:42:14;;;;;;;2.22;1.30;;;21.30;56.50;;;;;;4951945;28;20538;-80
2022/08/02 00:44:40;;;;;;;1.37;1.20;;;21.30;56.90;;;;;;4945395;28;20133;-80
2022/08/02 00:47:06;;;;;;;2.33;1.20;;;21.30;56.80;;;;;;4940213;28;20734;-80
2022/08/02 00:49:32;;;;;;;1.55;1.10;;;21.20;56.80;;;;;;4957183;28;20038;-80
2022/08/02 00:51:58;;;;;;;2.20;1.17;;;21.30;56.90;;;;;;4941263;28;20291;-80
2022/08/02 00:54:23;;;;;;;2.30;1.00;;;21.20;57.60;;;;;;4949806;28;20348;-81
2022/08/02 00:56:49;;;;;;;2.13;1.52;;;21.20;57.00;;;;;;4934622;28;20217;-80
2022/08/02 00:59:15;;;;;;;1.70;1.20;;;21.20;57.00;;;;;;4956782;28;20098;-81
2022/08/02 01:01:41;;;;;;;2.30;1.20;;;21.20;57.00;;;;;;4953712;28;20193;-80
2022/08/02 01:04:13;;;;;;;2.65;1.13;;;21.20;57.20;;;;;;4935915;28;20118;-80
2022/08/02 01:06:41;;;;;;;1.88;1.23;;;21.10;57.70;;;;;;4952935;28;20039;-80
2022/08/02 01:09:07;;;;;;;1.92;1.08;;;21.10;57.40;;;;;;4946453;28;20447;-81
2022/08/02 01:11:34;;;;;;;1.90;1.23;;;21.10;57.30;;;;;;4955700;28;20558;-80
2022/08/02 01:14:12;;;;;;;1.73;0.90;;;21.10;57.40;;;;;;4941635;28;20915;-81
2022/08/02 01:17:02;;;;;;;2.25;1.20;;;21.10;58.40;;;;;;4966520;28;20033;-81
2022/08/02 01:19:50;;;;;;;2.60;1.08;;;21.10;58.70;;;;;;4935828;28;20038;-81
2022/08/02 01:22:57;;;;;;;1.65;1.10;;;21.00;58.10;;;;;;4969591;28;20481;-81
2022/08/02 01:25:37;;;;;;;1.90;1.10;;;20.90;58.80;;;;;;4954872;28;20051;-81
2022/08/02 01:28:22;;;;;;;2.63;1.00;;;21.00;58.50;;;;;;4933475;28;20042;-81
2022/08/02 01:30:54;;;;;;;1.63;1.20;;;20.90;58.90;;;;;;4944330;28;20039;-80
2022/08/02 01:33:21;;;;;;;1.83;1.30;;;20.90;58.00;;;;;;4959525;28;20038;-80
2022/08/02 01:35:54;;;;;;;2.17;1.10;;;20.90;57.90;;;;;;4913818;28;20057;-80
2022/08/02 01:38:26;;;;;;;2.47;1.27;;;20.90;58.40;;;;;;4945277;28;20015;-80
2022/08/02 01:40:55;;;;;;;1.57;1.10;;;20.90;58.30;;;;;;4935316;28;20304;-80
2022/08/02 01:43:23;;;;;;;1.65;1.10;;;20.90;58.30;;;;;;4943999;28;20026;-80
2022/08/02 01:45:49;;;;;;;2.85;1.30;;;20.80;58.30;;;;;;4953341;28;20023;-80
2022/08/02 01:48:16;;;;;;;1.70;1.40;;;20.80;58.40;;;;;;4964052;28;20035;-80
2022/08/02 01:50:42;;;;;;;2.38;1.25;;;20.80;58.40;;;;;;4912945;28;20240;-80
2022/08/02 01:53:09;;;;;;;3.17;1.40;;;20.80;58.40;;;;;;4956159;28;20395;-80
2022/08/02 01:55:47;;;;;;;3.60;1.30;;;20.80;58.70;;;;;;4942733;28;20023;-80
2022/08/02 01:58:17;;;;;;;2.25;1.15;;;20.80;59.70;;;;;;4962269;28;20019;-80
2022/08/02 02:00:44;;;;;;;2.03;1.30;;;20.80;59.00;;;;;;4949903;28;20598;-80
2022/08/02 02:03:18;;;;;;;2.45;1.38;;;20.70;58.80;;;;;;4958138;28;20022;-80
2022/08/02 02:05:47;;;;;;;1.70;1.17;;;20.70;59.20;;;;;;4945985;28;20031;-80
2022/08/02 02:08:15;;;;;;;1.27;1.13;;;20.70;59.00;;;;;;4967063;28;20406;-80
2022/08/02 02:10:43;;;;;;;1.55;1.20;;;20.60;58.90;;;;;;4949571;28;20394;-80
2022/08/02 02:13:13;;;;;;;1.30;1.20;;;20.60;58.90;;;;;;4949129;28;20379;-80
2022/08/02 02:15:46;;;;;;;2.60;1.30;;;20.60;59.30;;;;;;4946850;28;20565;-80
2022/08/02 02:18:19;;;;;;;1.30;1.20;;;20.60;59.70;;;;;;4945600;28;20549;-81
2022/08/02 02:20:45;;;;;;;2.05;1.30;;;20.60;59.30;;;;;;4954127;28;20042;-80
2022/08/02 02:23:12;;;;;;;2.28;1.10;;;20.60;59.40;;;;;;4945497;28;20423;-80
2022/08/02 02:25:40;;;;;;;2.00;1.20;;;20.50;59.40;;;;;;4951376;28;20584;-80
2022/08/02 02:28:23;;;;;;;3.70;1.40;;;20.50;59.60;;;;;;4943395;28;20545;-80
2022/08/02 02:30:53;;;;;;;1.50;1.10;;;20.50;59.70;;;;;;4941198;28;20504;-80
2022/08/02 02:33:20;;;;;;;2.08;1.10;;;20.50;59.60;;;;;;4973526;28;20411;-80
2022/08/02 02:35:49;;;;;;;3.00;1.50;;;20.50;59.60;;;;;;4960315;28;20395;-80
2022/08/02 02:38:17;;;;;;;3.08;1.52;;;20.50;59.70;;;;;;4953264;28;20487;-80
2022/08/02 02:40:46;;;;;;;2.70;1.25;;;20.40;59.80;;;;;;4966731;28;20515;-80
2022/08/02 02:43:12;;;;;;;2.03;1.30;;;20.40;59.90;;;;;;4975094;28;20097;-80
2022/08/02 02:45:40;;;;;;;1.98;1.30;;;20.40;60.00;;;;;;4945938;28;20579;-80
2022/08/02 02:48:08;;;;;;;1.75;1.20;;;20.40;60.40;;;;;;4972411;28;20656;-80
2022/08/02 02:50:35;;;;;;;1.38;1.25;;;20.30;60.20;;;;;;4950238;28;20565;-80
2022/08/02 02:53:02;;;;;;;3.17;1.40;;;20.30;60.30;;;;;;4936094;28;20476;-80
2022/08/02 02:55:27;;;;;;;2.43;1.40;;;20.20;60.20;;;;;;4951143;28;20274;-80
2022/08/02 02:57:54;;;;;;;2.22;1.35;;;20.20;60.20;;;;;;4951287;28;20107;-80
2022/08/02 03:01:26;;;;;;;1.70;1.25;;;20.10;60.30;;;;;;4958043;28;20202;-80
2022/08/02 03:03:08;;;;;;;2.30;1.33;;;20.10;60.30;;;;;;4954216;28;20065;-80
2022/08/02 03:05:34;;;;;;;2.30;1.20;;;20.10;60.40;;;;;;4959658;28;20033;-80
2022/08/02 03:08:00;;;;;;;1.73;1.30;;;20.00;60.40;;;;;;4952911;28;20062;-80
2022/08/02 03:10:26;;;;;;;2.83;1.40;;;20.00;60.50;;;;;;4941211;28;20221;-80
2022/08/02 03:12:52;;;;;;;3.10;1.35;;;20.00;60.50;;;;;;4955343;28;20027;-80
2022/08/02 03:15:20;;;;;;;2.97;1.33;;;19.90;60.60;;;;;;4948983;28;20595;-80
2022/08/02 03:17:46;;;;;;;2.22;1.30;;;19.90;60.90;;;;;;4952894;28;20063;-80
2022/08/02 03:20:14;;;;;;;2.47;1.40;;;19.90;61.00;;;;;;4942750;28;20031;-81
2022/08/02 03:22:41;;;;;;;3.30;1.40;;;19.80;61.10;;;;;;4957911;28;20370;-80
2022/08/02 03:25:09;;;;;;;1.58;1.20;;;19.80;61.30;;;;;;4938246;28;20121;-80
2022/08/02 03:27:35;;;;;;;1.33;1.23;;;19.70;61.40;;;;;;4953237;28;20015;-80
2022/08/02 03:30:01;;;;;;;2.53;1.40;;;19.70;61.40;;;;;;4958993;28;20031;-80
2022/08/02 03:32:27;;;;;;;1.63;1.23;;;19.70;61.60;;;;;;4956282;28;20200;-80
2022/08/02 03:34:53;;;;;;;2.00;1.23;;;19.70;61.80;;;;;;4938447;28;20034;-80
2022/08/02 03:37:21;;;;;;;2.13;1.20;;;19.60;61.80;;;;;;4947222;28;22289;-80
2022/08/02 03:39:48;;;;;;;1.80;1.40;;;19.60;62.00;;;;;;4941888;28;20022;-80
2022/08/02 03:42:14;;;;;;;2.10;1.42;;;19.60;62.10;;;;;;4954256;28;20073;-81
2022/08/02 03:44:41;;;;;;;1.63;1.20;;;19.50;62.10;;;;;;4950460;28;20051;-80
2022/08/02 03:47:07;;;;;;;1.63;1.30;;;19.50;62.20;;;;;;4934461;28;20023;-80
2022/08/02 03:49:35;;;;;;;1.70;1.30;;;19.50;62.30;;;;;;4952501;28;20038;-81
2022/08/02 03:52:01;;;;;;;2.72;1.45;;;19.40;62.50;;;;;;4967695;28;20087;-81
2022/08/02 03:54:27;;;;;;;2.42;1.38;;;19.40;62.50;;;;;;4934732;28;20026;-80
2022/08/02 03:56:53;;;;;;;1.80;1.40;;;19.40;62.60;;;;;;4953362;28;20031;-81
2022/08/02 03:59:19;;;;;;;2.27;1.40;;;19.30;62.60;;;;;;4952014;28;20495;-80
2022/08/02 04:01:45;;;;;;;2.20;1.20;;;19.30;62.70;;;;;;4970979;28;20113;-80
2022/08/02 04:04:11;;;;;;;2.40;1.23;;;19.30;62.80;;;;;;4946360;28;20517;-81
2022/08/02 04:06:37;;;;;;;1.63;1.30;;;19.30;62.90;;;;;;4953251;28;20113;-81
2022/08/02 04:09:02;;;;;;;1.80;1.20;;;19.20;63.00;;;;;;4964901;28;20130;-80
2022/08/02 04:11:31;;;;;;;3.10;1.40;;;19.30;63.10;;;;;;4921947;28;20106;-80
2022/08/02 04:14:15;;;;;;;2.42;1.50;;;19.30;63.40;;;;;;4952790;28;20653;-80
2022/08/02 04:16:49;;;;;;;2.53;1.50;;;19.30;65.20;;;;;;4945874;28;20491;-80
2022/08/02 04:19:31;;;;;;;2.22;1.50;;;19.30;64.10;;;;;;4940385;28;20184;-80
2022/08/02 04:22:04;;;;;;;2.33;1.60;;;19.20;64.20;;;;;;4953501;28;20681;-80
2022/08/02 04:24:43;;;;;;;2.93;1.40;;;19.30;64.20;;;;;;4959716;28;20134;-80
2022/08/02 04:27:11;;;;;;;2.75;1.40;;;19.30;65.00;;;;;;4927370;28;20501;-81
2022/08/02 04:29:38;;;;;;;2.75;1.40;;;19.30;64.20;;;;;;4952954;28;20027;-81
2022/08/02 04:32:05;;;;;;;2.90;1.60;;;19.30;64.40;;;;;;4949147;28;20644;-80
2022/08/02 04:34:31;;;;;;;1.85;1.40;;;19.30;64.50;;;;;;4955077;28;20027;-81
2022/08/02 04:36:58;;;;;;;2.10;1.60;;;19.30;64.50;;;;;;4938150;28;20078;-80
2022/08/02 04:39:25;;;;;;;1.92;1.20;;;19.30;64.60;;;;;;4930532;28;20029;-81
2022/08/02 04:41:51;;;;;;;2.50;1.48;;;19.30;64.60;;;;;;4934531;28;20168;-80
2022/08/02 04:44:16;;;;;;;1.87;1.37;;;19.30;64.50;;;;;;4933919;28;20121;-80
2022/08/02 04:46:43;;;;;;;2.65;1.52;;;19.40;64.70;;;;;;4970005;28;20042;-80
2022/08/02 04:49:08;;;;;;;5.18;1.50;;;19.40;64.70;;;;;;4958447;28;20252;-80
2022/08/02 04:51:39;;;;;;;1.80;1.40;;;19.40;64.70;;;;;;4952831;28;20118;-80
2022/08/02 04:54:06;;;;;;;2.30;1.40;;;19.40;65.10;;;;;;4964936;28;20065;-80
2022/08/02 04:56:32;;;;;;;2.33;1.40;;;19.40;65.10;;;;;;4959883;28;20023;-81
2022/08/02 04:58:58;;;;;;;2.07;1.50;;;19.40;65.00;;;;;;4923571;28;20031;-81
2022/08/02 05:01:23;;;;;;;1.95;1.30;;;19.40;65.00;;;;;;4942161;28;20026;-81
2022/08/02 05:03:49;;;;;;;1.87;1.30;;;19.50;65.20;;;;;;4943651;28;20039;-81
2022/08/02 05:06:15;;;;;;;2.90;1.60;;;19.50;65.30;;;;;;4955123;28;20394;-81
2022/08/02 05:08:41;;;;;;;2.80;1.77;;;19.50;65.40;;;;;;4931569;28;20275;-81
2022/08/02 05:11:07;;;;;;;3.60;1.60;;;19.50;65.40;;;;;;4960126;28;20500;-81
2022/08/02 05:13:32;;;;;;;2.80;1.50;;;19.60;65.60;;;;;;4942623;28;20589;-81
2022/08/02 05:16:01;;;;;;;4.90;1.50;;;19.60;65.60;;;;;;4930005;28;20030;-81
2022/08/02 05:18:27;;;;;;;2.97;1.40;;;19.60;65.70;;;;;;4958340;28;20129;-81
2022/08/02 05:20:53;;;;;;;2.40;1.50;;;19.70;65.80;;;;;;4939059;28;20031;-81
2022/08/02 05:23:19;;;;;;;2.95;1.60;;;19.80;65.90;;;;;;4926424;28;20054;-81
2022/08/02 05:25:45;;;;;;;2.30;1.77;;;19.80;65.90;;;;;;4952689;28;20047;-81
2022/08/02 05:28:10;;;;;;;2.63;1.60;;;19.80;66.00;;;;;;4954684;28;20506;-81
2022/08/02 05:30:36;;;;;;;2.35;1.60;;;19.80;66.10;;;;;;4949446;28;20051;-81
2022/08/02 05:33:03;;;;;;;1.60;1.33;;;19.90;66.20;;;;;;4951177;28;20162;-81
2022/08/02 05:35:29;;;;;;;3.08;1.50;;;20.00;66.30;;;;;;4960054;28;20395;-81
2022/08/02 05:37:55;;;;;;;2.60;1.58;;;20.00;66.30;;;;;;4943733;28;20531;-81
2022/08/02 05:40:21;;;;;;;2.40;1.52;;;20.00;66.30;;;;;;4967908;28;20025;-81
2022/08/02 05:42:47;;;;;;;2.47;1.40;;;20.10;66.40;;;;;;4959024;28;20030;-81
2022/08/02 05:45:13;;;;;;;2.90;1.75;;;20.10;66.50;;;;;;4941213;28;20073;-82
2022/08/02 05:47:39;;;;;;;2.03;1.40;;;20.20;67.40;;;;;;4928164;28;20328;-81
2022/08/02 05:50:09;;;;;;;3.27;1.63;;;20.20;66.60;;;;;;4955054;28;20058;-81
2022/08/02 05:52:45;;;;;;;2.58;1.40;;;20.30;67.20;;;;;;4941358;28;20141;-81
2022/08/02 05:55:15;;;;;;;2.42;1.58;;;20.30;67.80;;;;;;4934786;28;20026;-82
2022/08/02 05:57:59;;;;;;;2.65;1.85;;;20.40;67.00;;;;;;4943081;28;20038;-81
2022/08/02 06:00:31;;;;;;;2.03;1.35;;;20.40;67.10;;;;;;4958748;28;20043;-81
2022/08/02 06:03:16;;;;;;;2.17;1.50;;;20.40;67.30;;;;;;4963257;28;20026;-81
2022/08/02 06:05:47;;;;;;;2.30;1.60;;;20.50;67.20;;;;;;4946030;28;20039;-81
2022/08/02 06:08:13;;;;;;;3.00;1.50;;;20.60;68.30;;;;;;4946914;28;20061;-81
2022/08/02 06:10:40;;;;;;;3.35;1.80;;;20.60;67.50;;;;;;4920074;28;20019;-81
2022/08/02 06:13:15;;;;;;;3.53;1.70;;;20.70;67.80;;;;;;4955987;28;20078;-82
2022/08/02 06:15:42;;;;;;;2.88;1.88;;;20.80;68.60;;;;;;4955161;28;20167;-81
2022/08/02 06:18:07;;;;;;;2.70;1.90;;;20.80;67.70;;;;;;4931290;28;20031;-80
2022/08/02 06:20:35;;;;;;;3.28;2.10;;;20.80;67.80;;;;;;4939208;28;20110;-81
2022/08/02 06:23:06;;;;;;;2.70;1.70;;;20.90;67.90;;;;;;4957909;28;20023;-82
2022/08/02 06:25:34;;;;;;;2.95;2.00;;;21.00;68.40;;;;;;4932106;28;20043;-81
2022/08/02 06:28:02;;;;;;;3.65;1.90;;;21.10;68.20;;;;;;4940587;28;20472;-81
2022/08/02 06:30:29;;;;;;;2.35;1.70;;;21.20;68.30;;;;;;4954971;28;20035;-81
2022/08/02 06:32:56;;;;;;;2.65;1.92;;;21.20;68.10;;;;;;4939177;28;20114;-81
2022/08/02 06:35:32;;;;;;;2.70;1.90;;;21.30;68.30;;;;;;4941617;28;20038;-81
2022/08/02 06:38:02;;;;;;;3.63;1.88;;;21.40;68.40;;;;;;4938034;28;20030;-81
2022/08/02 06:40:30;;;;;;;2.50;1.80;;;21.50;68.40;;;;;;4933976;28;20069;-82
2022/08/02 06:43:09;;;;;;;2.92;1.63;;;21.50;68.10;;;;;;4937685;28;20034;-82
2022/08/02 06:45:35;;;;;;;2.53;1.45;;;21.60;68.10;;;;;;4950519;28;20028;-82
2022/08/02 06:48:02;;;;;;;3.13;1.67;;;21.70;67.90;;;;;;4939712;28;20027;-81
2022/08/02 06:50:29;;;;;;;1.83;1.33;;;21.80;67.80;;;;;;4942232;28;20041;-80
2022/08/02 06:52:55;;;;;;;1.88;1.35;;;21.90;67.70;;;;;;4944323;28;20284;-82
2022/08/02 06:55:20;;;;;;;2.47;1.50;;;22.00;67.60;;;;;;4911328;28;20413;-81
2022/08/02 06:57:46;;;;;;;1.50;1.30;;;22.10;67.20;;;;;;4952623;28;20035;-80
2022/08/02 07:00:12;;;;;;;2.80;1.40;;;22.20;67.00;;;;;;4947043;28;20027;-81
2022/08/02 07:02:38;;;;;;;1.80;1.27;;;22.30;66.80;;;;;;4954267;28;20031;-81
2022/08/02 07:05:05;;;;;;;1.45;1.05;;;22.40;66.70;;;;;;4924652;28;20168;-81
2022/08/02 07:07:32;;;;;;;2.03;1.30;;;22.50;66.70;;;;;;4929094;28;20030;-81
2022/08/02 07:09:58;;;;;;;1.98;1.20;;;22.60;66.30;;;;;;4929965;28;20031;-81
2022/08/02 07:12:25;;;;;;;1.73;1.20;;;22.70;66.10;;;;;;4932405;28;20019;-81
2022/08/02 07:14:51;;;;;;;1.43;1.13;;;22.70;65.80;;;;;;4934862;28;20050;-82
2022/08/02 07:17:16;;;;;;;2.60;1.20;;;22.80;65.60;;;;;;4957451;28;20241;-82
2022/08/02 07:19:42;;;;;;;1.33;1.00;;;22.90;65.60;;;;;;4938630;28;20031;-81
2022/08/02 07:22:08;;;;;;;1.75;1.10;;;23.00;65.40;;;;;;4941088;28;20216;-81
2022/08/02 07:24:34;;;;;;;1.43;1.10;;;23.00;65.30;;;;;;4956319;28;20121;-81
2022/08/02 07:27:00;;;;;;;1.33;1.20;;;23.10;65.30;;;;;;4929342;28;20122;-80
2022/08/02 07:29:26;;;;;;;2.73;1.00;;;23.20;65.20;;;;;;4969764;28;20055;-81
2022/08/02 07:31:52;;;;;;;2.73;1.00;;;23.40;65.00;;;;;;4944026;28;20770;-80
2022/08/02 07:34:17;;;;;;;2.13;1.20;;;23.40;64.80;;;;;;4934565;28;20039;-80
2022/08/02 07:36:43;;;;;;;1.93;1.30;;;23.50;64.60;;;;;;4945751;28;20026;-80
2022/08/02 07:39:09;;;;;;;1.50;1.20;;;23.60;64.40;;;;;;4948873;28;20031;-81
2022/08/02 07:41:35;;;;;;;1.60;1.10;;;23.70;64.10;;;;;;4949032;28;20361;-80
2022/08/02 07:44:01;;;;;;;1.50;1.00;;;23.80;63.50;;;;;;4926612;28;20057;-81
2022/08/02 07:46:27;;;;;;;2.95;1.20;;;23.90;63.10;;;;;;4954171;28;20105;-80
2022/08/02 07:48:53;;;;;;;2.53;1.10;;;23.90;62.70;;;;;;4964009;28;20160;-81
2022/08/02 07:51:22;;;;;;;1.60;1.00;;;23.90;62.70;;;;;;4901361;28;20176;-81
2022/08/02 07:53:48;;;;;;;1.75;1.00;;;24.00;62.60;;;;;;4959989;28;20055;-80
2022/08/02 07:56:14;;;;;;;1.97;1.00;;;24.10;63.00;;;;;;4935565;28;20166;-80
2022/08/02 07:58:42;;;;;;;1.38;1.15;;;24.30;63.10;;;;;;4947160;28;20061;-81
2022/08/02 08:01:09;;;;;;;1.65;1.10;;;24.40;62.80;;;;;;4948412;28;20105;-80
2022/08/02 08:03:35;;;;;;;1.50;1.10;;;24.50;63.00;;;;;;4958647;28;20236;-81
2022/08/02 08:06:01;;;;;;;1.03;0.93;;;24.70;62.70;;;;;;4916846;28;20078;-79
2022/08/02 08:08:27;;;;;;;1.60;1.00;;;24.90;62.80;;;;;;4946186;28;20312;-81
2022/08/02 08:10:52;;;;;;;1.55;1.17;;;25.00;62.60;;;;;;4936153;28;20060;-79
2022/08/02 08:13:18;;;;;;;0.80;0.80;;;25.20;62.60;;;;;;4930690;28;20792;-82
2022/08/02 08:15:44;;;;;;;1.13;0.88;;;25.40;62.50;;;;;;4948617;28;20116;-81
2022/08/02 08:18:10;;;;;;;2.87;1.17;;;25.70;63.00;;;;;;4944948;28;20411;-81
2022/08/02 08:20:37;;;;;;;2.85;1.10;;;25.90;63.50;;;;;;4942042;28;20023;-80
2022/08/02 08:23:03;;;;;;;1.50;1.23;;;26.20;64.00;;;;;;4936532;28;20057;-81
2022/08/02 08:25:29;;;;;;;1.75;1.20;;;26.70;64.50;;;;;;4948537;28;20510;-81
2022/08/02 08:27:55;;;;;;;1.87;1.10;;;27.10;63.30;;;;;;4932896;28;20506;-81
2022/08/02 08:30:21;;;;;;;1.63;1.10;;;27.50;62.90;;;;;;4937334;28;20139;-81
2022/08/02 08:32:47;;;;;;;1.38;1.00;;;27.90;62.10;;;;;;4974021;28;20551;-81
2022/08/02 08:35:13;;;;;;;1.00;0.90;;;28.30;61.80;;;;;;4944805;28;20677;-81
2022/08/02 08:37:39;;;;;;;1.00;0.90;;;28.70;61.30;;;;;;4926177;28;20034;-80
2022/08/02 08:40:06;;;;;;;1.70;1.00;;;29.20;60.90;;;;;;4955455;28;20050;-81
2022/08/02 08:42:33;;;;;;;3.22;1.08;;;29.50;60.00;;;;;;4941225;28;20105;-81
2022/08/02 08:44:59;;;;;;;1.00;0.90;;;29.90;59.10;;;;;;4942131;28;20059;-81
2022/08/02 08:47:49;;;;;;;1.75;1.08;;;30.30;58.20;;;;;;4952157;28;20253;-79
2022/08/02 08:50:24;;;;;;;1.00;0.93;;;30.60;57.00;;;;;;4936733;28;20049;-82
2022/08/02 08:53:03;;;;;;;1.20;1.10;;;31.00;53.80;;;;;;4929066;28;20460;-81
2022/08/02 08:55:29;;;;;;;1.23;1.10;;;31.30;54.60;;;;;;4948890;28;20066;-81
2022/08/02 08:57:58;;;;;;;2.08;1.13;;;31.50;55.60;;;;;;4931936;28;20031;-81
2022/08/02 09:00:25;;;;;;;1.20;1.10;;;31.80;54.90;;;;;;4920553;28;20023;-81
2022/08/02 09:02:50;;;;;;;1.10;1.00;;;32.10;54.40;;;;;;4938879;28;20227;-82
2022/08/02 09:05:17;;;;;;;1.10;1.00;;;32.30;53.10;;;;;;4951738;28;20026;-82
2022/08/02 09:07:45;;;;;;;1.20;1.10;;;32.40;52.20;;;;;;4943034;28;20019;-82
2022/08/02 09:10:30;;;;;;;1.27;1.00;;;32.40;51.90;;;;;;4948215;28;20037;-82
2022/08/02 09:13:15;;;;;;;1.77;1.23;;;32.40;49.30;;;;;;4936369;28;20905;-80
2022/08/02 09:15:51;;;;;;;1.10;1.00;;;32.50;48.80;;;;;;4943265;28;20027;-82
2022/08/02 09:18:17;;;;;;;0.90;0.90;;;32.50;50.10;;;;;;4971873;28;20073;-81
2022/08/02 09:20:58;;;;;;;1.33;1.13;;;32.60;50.40;;;;;;4940732;28;20035;-81
2022/08/02 09:23:32;;;;;;;1.13;1.02;;;32.50;48.40;;;;;;4938044;28;20472;-81
2022/08/02 09:26:00;;;;;;;1.65;1.10;;;32.50;48.40;;;;;;4933165;28;20230;-82
2022/08/02 09:28:28;;;;;;;1.30;1.20;;;32.50;48.70;;;;;;4943036;28;20579;-81
2022/08/02 09:31:16;;;;;;;2.58;1.10;;;32.50;49.00;;;;;;4927101;28;20735;-81
2022/08/02 09:33:44;;;;;;;2.13;1.00;;;32.50;48.30;;;;;;4953546;28;20055;-81
2022/08/02 09:36:12;;;;;;;1.65;1.00;;;32.50;49.00;;;;;;4934329;28;20578;-81
2022/08/02 09:38:39;;;;;;;1.38;1.27;;;32.60;49.00;;;;;;4946664;28;20018;-81
2022/08/02 09:41:19;;;;;;;1.92;1.10;;;32.80;49.50;;;;;;4919747;28;20495;-81
2022/08/02 09:43:45;;;;;;;1.33;1.23;;;33.10;48.10;;;;;;4943111;28;20577;-81
2022/08/02 09:46:15;;;;;;;1.53;1.20;;;33.40;48.90;;;;;;4951107;28;20045;-82
2022/08/02 09:48:53;;;;;;;2.17;1.23;;;33.70;48.90;;;;;;4938123;28;20248;-82
2022/08/02 09:51:23;;;;;;;1.65;1.10;;;34.10;47.00;;;;;;4947626;28;20034;-82
2022/08/02 09:53:52;;;;;;;1.70;1.20;;;34.40;47.20;;;;;;4949009;28;20539;-81
2022/08/02 09:56:19;;;;;;;2.67;1.30;;;34.60;46.80;;;;;;4939605;28;20019;-81
2022/08/02 09:58:45;;;;;;;1.33;1.02;;;34.80;45.90;;;;;;4935861;28;20580;-82
2022/08/02 10:01:11;;;;;;;1.83;1.30;;;34.80;45.50;;;;;;4947721;28;20031;-81
2022/08/02 10:03:45;;;;;;;1.35;1.20;;;34.90;44.60;;;;;;4921550;28;20244;-81
2022/08/02 10:06:11;;;;;;;1.35;1.25;;;34.90;44.60;;;;;;4957062;28;20030;-82
2022/08/02 10:08:37;;;;;;;1.40;1.20;;;34.90;45.10;;;;;;4921440;28;20435;-83
2022/08/02 10:11:03;;;;;;;2.22;1.30;;;34.90;43.90;;;;;;4945319;28;20064;-83
2022/08/02 10:13:33;;;;;;;1.88;1.40;;;34.90;43.60;;;;;;4935613;28;20152;-82
2022/08/02 10:16:01;;;;;;;1.30;1.20;;;34.90;42.60;;;;;;4949329;28;20037;-81
2022/08/02 10:18:27;;;;;;;1.23;1.20;;;34.90;43.10;;;;;;4933573;28;20031;-82
2022/08/02 10:20:55;;;;;;;1.80;1.50;;;35.00;42.90;;;;;;4958021;28;20032;-81
2022/08/02 10:23:25;;;;;;;1.48;1.30;;;35.10;42.50;;;;;;4972630;28;20039;-83
2022/08/02 10:25:52;;;;;;;1.63;1.52;;;35.10;42.40;;;;;;4946285;28;20039;-83
2022/08/02 10:28:36;;;;;;;1.63;1.52;;;35.20;42.00;;;;;;4942376;28;20034;-82
2022/08/02 10:31:06;;;;;;;2.90;1.80;;;35.30;41.90;;;;;;4947557;28;20155;-82
2022/08/02 10:33:34;;;;;;;1.25;1.15;;;35.50;41.70;;;;;;4938118;28;20026;-83
2022/08/02 10:36:02;;;;;;;1.63;1.52;;;35.60;41.50;;;;;;4958014;28;20241;-82
2022/08/02 10:38:28;;;;;;;1.65;1.42;;;35.70;41.80;;;;;;4946420;28;20034;-82
2022/08/02 10:40:54;;;;;;;2.15;1.35;;;35.70;40.70;;;;;;4953889;28;20023;-81
2022/08/02 10:43:40;;;;;;;1.33;1.23;;;35.70;40.30;;;;;;4950958;28;20045;-82
2022/08/02 10:46:32;;;;;;;1.45;1.20;;;35.60;39.10;;;;;;4945016;28;20034;-82
2022/08/02 10:49:46;;;;;;;1.40;1.30;;;35.40;38.50;;;;;;4943675;28;20031;-82
2022/08/02 10:52:13;;;;;;;1.20;1.10;;;35.30;38.60;;;;;;4936391;28;20594;-81
2022/08/02 10:55:00;;;;;;;1.50;1.40;;;35.20;39.50;;;;;;4950962;28;20461;-82
2022/08/02 10:57:30;;;;;;;1.30;1.20;;;35.10;39.20;;;;;;4962147;28;20505;-82
2022/08/02 11:00:25;;;;;;;1.75;1.20;;;35.00;39.60;;;;;;4927227;28;20208;-82
2022/08/02 11:02:52;;;;;;;1.30;1.20;;;34.90;39.00;;;;;;4958732;28;20031;-82
2022/08/02 11:05:30;;;;;;;1.00;1.00;;;34.80;39.40;;;;;;4944997;28;20035;-82
2022/08/02 11:07:56;;;;;;;3.50;1.40;;;34.70;39.20;;;;;;4949693;28;20636;-82
2022/08/02 11:10:24;;;;;;;2.20;1.30;;;34.70;40.30;;;;;;4954140;28;20019;-82
2022/08/02 11:13:20;;;;;;;3.10;1.60;;;34.90;40.10;;;;;;4931022;28;20045;-82
2022/08/02 11:16:04;;;;;;;1.40;1.30;;;35.00;39.50;;;;;;4930717;28;20019;-81
2022/08/02 11:18:45;;;;;;;1.40;1.30;;;35.30;39.50;;;;;;4936033;28;20046;-82
2022/08/02 11:21:23;;;;;;;1.70;1.50;;;35.50;39.30;;;;;;4929093;28;20035;-82
2022/08/02 11:23:49;;;;;;;1.63;1.52;;;35.70;38.80;;;;;;4945648;28;20086;-82
2022/08/02 11:26:30;;;;;;;1.38;1.27;;;35.90;39.40;;;;;;4941521;28;20506;-82
2022/08/02 11:29:00;;;;;;;1.30;1.17;;;36.00;37.70;;;;;;4931089;28;20118;-82
2022/08/02 11:31:27;;;;;;;1.30;1.20;;;36.10;38.30;;;;;;4938568;28;20046;-82
2022/08/02 11:33:53;;;;;;;1.80;1.10;;;36.10;38.10;;;;;;4934401;28;20102;-82
2022/08/02 11:36:19;;;;;;;1.38;1.27;;;36.10;38.20;;;;;;4953665;28;20026;-82
2022/08/02 11:38:45;;;;;;;1.70;1.40;;;36.20;38.00;;;;;;4951912;28;20151;-82
2022/08/02 11:41:19;;;;;;;1.92;1.25;;;36.20;37.90;;;;;;4956654;28;20370;-82
2022/08/02 11:43:45;;;;;;;1.50;1.10;;;36.30;36.80;;;;;;4932097;28;20031;-82
2022/08/02 11:46:13;;;;;;;1.90;1.20;;;36.40;37.70;;;;;;4932857;28;20700;-83
2022/08/02 11:48:40;;;;;;;1.55;1.30;;;36.50;37.50;;;;;;4944885;28;20034;-82
2022/08/02 11:51:14;;;;;;;1.67;1.40;;;36.60;37.30;;;;;;4961976;28;20225;-83
2022/08/02 11:53:48;;;;;;;1.33;1.23;;;36.70;37.10;;;;;;4944629;28;20032;-82
2022/08/02 11:56:18;;;;;;;1.43;1.10;;;36.80;37.10;;;;;;4956279;28;20039;-82
2022/08/02 11:59:00;;;;;;;2.33;1.20;;;36.90;37.20;;;;;;4942778;28;20089;-82
2022/08/02 12:01:26;;;;;;;1.58;1.48;;;37.00;36.60;;;;;;4934337;28;20617;-82
2022/08/02 12:03:52;;;;;;;1.30;1.20;;;37.20;37.10;;;;;;4925546;28;20590;-82
2022/08/02 12:06:18;;;;;;;1.48;1.38;;;37.20;36.40;;;;;;4913466;28;20067;-83
2022/08/02 12:08:43;;;;;;;1.57;1.40;;;37.30;36.30;;;;;;4934368;28;20527;-82
2022/08/02 12:11:09;;;;;;;1.40;1.30;;;37.40;36.60;;;;;;4936136;28;20392;-82
2022/08/02 12:13:43;;;;;;;2.30;1.10;;;37.50;36.30;;;;;;4946229;28;20628;-82
2022/08/02 12:21:39;;;;;;;1.80;1.70;;;37.90;36.00;;;;;;4940849;28;20133;-82
2022/08/02 12:24:05;;;;;;;2.63;1.70;;;38.10;36.30;;;;;;4940419;28;20391;-82
2022/08/02 12:26:42;;;;;;;2.60;1.52;;;38.20;35.90;;;;;;4956967;28;20038;-82
2022/08/02 12:29:07;;;;;;;1.60;1.50;;;38.40;34.80;;;;;;4936925;28;20053;-82
2022/08/02 12:31:46;;;;;;;1.60;1.30;;;38.40;35.10;;;;;;4904823;28;20034;-82
2022/08/02 12:34:15;;;;;;;1.60;1.42;;;38.40;34.20;;;;;;4928349;28;20041;-82
2022/08/02 12:36:42;;;;;;;2.38;1.48;;;38.50;34.80;;;;;;4938948;28;20081;-82
2022/08/02 12:39:15;;;;;;;1.50;1.40;;;38.50;34.40;;;;;;4937601;28;20027;-83
2022/08/02 12:41:41;;;;;;;1.08;1.08;;;38.50;34.00;;;;;;4951846;28;20015;-83
2022/08/02 12:44:16;;;;;;;1.10;1.07;;;38.40;34.50;;;;;;4957519;28;20046;-83
2022/08/02 12:46:42;;;;;;;2.75;1.30;;;38.40;34.10;;;;;;4929060;28;20386;-83
2022/08/02 12:49:18;;;;;;;1.50;1.30;;;38.50;34.60;;;;;;4939774;28;20028;-83
2022/08/02 12:51:44;;;;;;;1.83;1.40;;;38.50;33.90;;;;;;4937712;28;20447;-82
2022/08/02 12:54:16;;;;;;;1.63;1.50;;;38.60;34.70;;;;;;4948472;28;20450;-82
2022/08/02 12:56:42;;;;;;;1.77;1.67;;;38.70;34.20;;;;;;4938445;28;21444;-83
2022/08/02 12:59:08;;;;;;;1.50;1.40;;;38.70;34.10;;;;;;4959203;28;20136;-81
2022/08/02 13:01:35;;;;;;;1.20;1.10;;;38.70;33.80;;;;;;4935415;28;20460;-83
2022/08/02 13:04:01;;;;;;;1.27;1.20;;;38.70;33.60;;;;;;4920213;28;20498;-82